首页
METAR-TAF:

METAR-TAF

机场 :

努美阿國際機場, 新喀里多尼亚

纬度: 22-01S, 经度: 166-13E, 海拔: 16米

当前天气观测

该预报发布于17分钟前的13:00 UTC
风速2节,风向
温度 25°C
湿度 94%
气压 1013 hPa
能見度: 4300
轻雾

METAR: NWWW 171300Z AUTO 01002KT 4300 BR NSC 25/24 Q1013 TEMPO VRB15G25KT 1000 TSRA BKN010CB

时间: 00:17 (13:17 UTC)

预报

该预报发布于2小时和17分钟前的11:00 UTC
预报有效从17日的 12点(UTC)到 18日的 12点(UTC)
风速2节,风向多变
能见度10公里或以上
散云层高于4000英尺
短暂存在
从 17日的 12点(UTC)到 17日的 18点(UTC)
能見度: 4000
轻雾
几率 30% :
短暂存在
从 17日的 12点(UTC)到 17日的 18点(UTC)
能見度: 0900
几率 30% :
短暂存在
从 17日的 12点(UTC)到 17日的 22点(UTC)
风速15节,风向多变,有时为25节阵风
能見度: 1000
多云层高于1000英尺, 积雨云.
雷暴, 雨
短暂存在
从 17日的 22点(UTC)到 18日的 12点(UTC)
能見度: 3000
散云层高于2000英尺, 塔状积云.
阵雨
几率 40% :
短暂存在
从 17日的 22点(UTC)到 18日的 12点(UTC)
风速15节,风向多变,有时为25节阵风
能見度: 1000
多云层高于1000英尺, 积雨云.
雷暴, 雨

TAF: NWWW 171100Z 1712/1812 VRB02KT 9999 SCT040 TEMPO 1712/1718 4000 BR PROB30 TEMPO 1712/1718 0900 FG PROB30 TEMPO 1712/1722 VRB15G25KT 1000 TSRA BKN010CB TEMPO 1722/1812 3000 SHRA SCT020TCU PROB40 TEMPO 1722/1812 VRB15G25KT 1000 TSRA BKN010CB

超过4000个机场的气象观测和天气预报(METAR&TAF报告)。

可查询的气象台以黄色和红色小点在地图上表示。

将鼠标移到小点上方,可查看气象台名称。

然后点击查看天气观测和预报。

如需切换地图:点击带黑十字的绿色按钮放大地图;点击带横线的绿色按钮缩小地图;或者点击绿色箭头查看邻近地区的地图。


METAR-TAF: